Ottertail, Minnesota
Current Conditions -  °F | °C
As of 6:35 AM on Tuesday 27 Jan 2015 (Local Time) from KADC Reporting Station
Overcast Overcast  
Wind Chill: -8°   Ceiling: 500
Heat Index: -3°   Visibility: 10mi
Dew Point: -4°   Wind: 8mph
Humidity: 93%   Direction: 130°SE
Pressure: 30.08"   Gusts: NA
Location:  46.43°N, 95.56°W
Report Text: KADC 271235Z AUTO 13007KT 10SM OVC005 M03/M04 A3008 RMK AO2
Loading
Personal Weather Stations






























Interactive Weather Map New forecast layout! Learn more

10-Day Weather Forecast

Advertisements
Track Severe Weather on mobile